sensor_id;sensor_type;location;lat;lon;timestamp;P1;durP1;ratioP1;P2;durP2;ratioP2
19623;SDS011;9959;49.798;9.928;2024-02-04T00:02:12;3.13;;;1.85;;
19623;SDS011;9959;49.798;9.928;2024-02-04T00:04:40;2.33;;;1.98;;
19623;SDS011;9959;49.798;9.928;2024-02-04T00:07:08;2.97;;;1.95;;
19623;SDS011;9959;49.798;9.928;2024-02-04T00:09:35;3.30;;;1.95;;
19623;SDS011;9959;49.798;9.928;2024-02-04T00:12:02;3.25;;;1.88;;
19623;SDS011;9959;49.798;9.928;2024-02-04T00:14:30;2.33;;;1.88;;
19623;SDS011;9959;49.798;9.928;2024-02-04T00:16:57;2.22;;;1.50;;
19623;SDS011;9959;49.798;9.928;2024-02-04T00:19:25;3.35;;;2.00;;
19623;SDS011;9959;49.798;9.928;2024-02-04T00:21:53;4.22;;;1.88;;
19623;SDS011;9959;49.798;9.928;2024-02-04T00:24:20;1.88;;;1.52;;
19623;SDS011;9959;49.798;9.928;2024-02-04T00:26:47;3.10;;;2.00;;
19623;SDS011;9959;49.798;9.928;2024-02-04T00:29:14;3.20;;;1.88;;
19623;SDS011;9959;49.798;9.928;2024-02-04T00:31:41;2.75;;;1.90;;
19623;SDS011;9959;49.798;9.928;2024-02-04T00:34:08;2.58;;;1.45;;
19623;SDS011;9959;49.798;9.928;2024-02-04T00:36:35;2.35;;;1.80;;
19623;SDS011;9959;49.798;9.928;2024-02-04T00:39:02;4.45;;;2.20;;
19623;SDS011;9959;49.798;9.928;2024-02-04T00:41:29;2.67;;;2.17;;
19623;SDS011;9959;49.798;9.928;2024-02-04T00:43:56;3.90;;;1.88;;
19623;SDS011;9959;49.798;9.928;2024-02-04T00:46:23;2.40;;;1.80;;
19623;SDS011;9959;49.798;9.928;2024-02-04T00:48:50;3.63;;;1.70;;
19623;SDS011;9959;49.798;9.928;2024-02-04T00:51:17;2.33;;;1.88;;
19623;SDS011;9959;49.798;9.928;2024-02-04T00:53:44;3.47;;;2.03;;
19623;SDS011;9959;49.798;9.928;2024-02-04T00:56:11;2.47;;;2.10;;
19623;SDS011;9959;49.798;9.928;2024-02-04T00:58:38;2.80;;;2.20;;
19623;SDS011;9959;49.798;9.928;2024-02-04T01:01:05;2.78;;;2.13;;
19623;SDS011;9959;49.798;9.928;2024-02-04T01:03:32;4.18;;;1.90;;
19623;SDS011;9959;49.798;9.928;2024-02-04T01:06:00;3.40;;;2.55;;
19623;SDS011;9959;49.798;9.928;2024-02-04T01:08:27;4.15;;;2.80;;
19623;SDS011;9959;49.798;9.928;2024-02-04T01:10:53;3.42;;;3.00;;
19623;SDS011;9959;49.798;9.928;2024-02-04T01:13:20;7.72;;;3.20;;
19623;SDS011;9959;49.798;9.928;2024-02-04T01:15:47;5.18;;;2.67;;
19623;SDS011;9959;49.798;9.928;2024-02-04T01:18:14;6.28;;;3.00;;
19623;SDS011;9959;49.798;9.928;2024-02-04T01:20:41;4.15;;;3.10;;
19623;SDS011;9959;49.798;9.928;2024-02-04T01:23:08;3.58;;;2.85;;
19623;SDS011;9959;49.798;9.928;2024-02-04T01:25:35;3.13;;;2.22;;
19623;SDS011;9959;49.798;9.928;2024-02-04T01:28:05;4.70;;;2.88;;
19623;SDS011;9959;49.798;9.928;2024-02-04T01:30:32;3.45;;;2.72;;
19623;SDS011;9959;49.798;9.928;2024-02-04T01:32:59;6.40;;;3.08;;
19623;SDS011;9959;49.798;9.928;2024-02-04T01:35:26;4.80;;;2.97;;
19623;SDS011;9959;49.798;9.928;2024-02-04T01:37:53;4.93;;;3.00;;
19623;SDS011;9959;49.798;9.928;2024-02-04T01:40:20;4.25;;;3.10;;
19623;SDS011;9959;49.798;9.928;2024-02-04T01:42:47;3.58;;;2.75;;
19623;SDS011;9959;49.798;9.928;2024-02-04T01:45:14;3.65;;;2.90;;
19623;SDS011;9959;49.798;9.928;2024-02-04T01:47:40;3.97;;;2.88;;
19623;SDS011;9959;49.798;9.928;2024-02-04T01:50:07;3.95;;;3.05;;
19623;SDS011;9959;49.798;9.928;2024-02-04T01:52:36;3.33;;;2.97;;
19623;SDS011;9959;49.798;9.928;2024-02-04T01:55:06;3.55;;;2.58;;
19623;SDS011;9959;49.798;9.928;2024-02-04T01:57:33;4.35;;;3.08;;
19623;SDS011;9959;49.798;9.928;2024-02-04T02:00:02;4.15;;;2.72;;
19623;SDS011;9959;49.798;9.928;2024-02-04T02:02:30;4.50;;;3.17;;
19623;SDS011;9959;49.798;9.928;2024-02-04T02:05:00;4.32;;;3.15;;
19623;SDS011;9959;49.798;9.928;2024-02-04T02:07:27;4.32;;;2.85;;
19623;SDS011;9959;49.798;9.928;2024-02-04T02:09:54;8.00;;;3.05;;
19623;SDS011;9959;49.798;9.928;2024-02-04T02:12:35;5.80;;;3.28;;
19623;SDS011;9959;49.798;9.928;2024-02-04T02:15:26;4.55;;;2.83;;
19623;SDS011;9959;49.798;9.928;2024-02-04T02:18:02;4.38;;;2.85;;
19623;SDS011;9959;49.798;9.928;2024-02-04T02:20:39;6.00;;;2.95;;
19623;SDS011;9959;49.798;9.928;2024-02-04T02:23:22;3.10;;;2.58;;
19623;SDS011;9959;49.798;9.928;2024-02-04T02:25:54;4.07;;;2.90;;
19623;SDS011;9959;49.798;9.928;2024-02-04T02:28:22;4.65;;;2.70;;
19623;SDS011;9959;49.798;9.928;2024-02-04T02:30:49;3.33;;;2.63;;
19623;SDS011;9959;49.798;9.928;2024-02-04T02:33:16;3.38;;;2.72;;
19623;SDS011;9959;49.798;9.928;2024-02-04T02:35:43;4.28;;;2.60;;
19623;SDS011;9959;49.798;9.928;2024-02-04T02:38:23;3.72;;;2.67;;
19623;SDS011;9959;49.798;9.928;2024-02-04T02:40:54;2.97;;;2.40;;
19623;SDS011;9959;49.798;9.928;2024-02-04T02:43:25;3.75;;;2.88;;
19623;SDS011;9959;49.798;9.928;2024-02-04T02:45:54;3.78;;;2.45;;
19623;SDS011;9959;49.798;9.928;2024-02-04T02:48:21;3.50;;;2.40;;
19623;SDS011;9959;49.798;9.928;2024-02-04T02:50:49;2.92;;;2.30;;
19623;SDS011;9959;49.798;9.928;2024-02-04T02:53:16;4.28;;;2.55;;
19623;SDS011;9959;49.798;9.928;2024-02-04T02:55:45;3.88;;;2.30;;
19623;SDS011;9959;49.798;9.928;2024-02-04T02:58:13;3.13;;;2.42;;
19623;SDS011;9959;49.798;9.928;2024-02-04T03:00:40;2.65;;;2.15;;
19623;SDS011;9959;49.798;9.928;2024-02-04T03:03:07;3.28;;;2.17;;
19623;SDS011;9959;49.798;9.928;2024-02-04T03:05:34;3.65;;;2.55;;
19623;SDS011;9959;49.798;9.928;2024-02-04T03:08:01;4.45;;;2.83;;
19623;SDS011;9959;49.798;9.928;2024-02-04T03:10:28;3.05;;;2.60;;
19623;SDS011;9959;49.798;9.928;2024-02-04T03:12:55;3.83;;;2.63;;
19623;SDS011;9959;49.798;9.928;2024-02-04T03:15:22;3.45;;;2.45;;
19623;SDS011;9959;49.798;9.928;2024-02-04T03:17:49;3.63;;;2.63;;
19623;SDS011;9959;49.798;9.928;2024-02-04T03:20:16;3.63;;;2.88;;
19623;SDS011;9959;49.798;9.928;2024-02-04T03:22:43;3.08;;;2.70;;
19623;SDS011;9959;49.798;9.928;2024-02-04T03:25:11;3.63;;;2.92;;
19623;SDS011;9959;49.798;9.928;2024-02-04T03:27:39;3.60;;;2.90;;
19623;SDS011;9959;49.798;9.928;2024-02-04T03:30:06;3.00;;;2.70;;
19623;SDS011;9959;49.798;9.928;2024-02-04T03:32:33;3.55;;;2.90;;
19623;SDS011;9959;49.798;9.928;2024-02-04T03:35:00;4.78;;;2.67;;
19623;SDS011;9959;49.798;9.928;2024-02-04T03:37:28;3.70;;;2.90;;
19623;SDS011;9959;49.798;9.928;2024-02-04T03:39:55;4.47;;;3.35;;
19623;SDS011;9959;49.798;9.928;2024-02-04T03:42:21;6.20;;;3.20;;
19623;SDS011;9959;49.798;9.928;2024-02-04T03:44:48;4.05;;;3.05;;
19623;SDS011;9959;49.798;9.928;2024-02-04T03:47:15;4.18;;;3.08;;
19623;SDS011;9959;49.798;9.928;2024-02-04T03:49:42;3.95;;;2.80;;
19623;SDS011;9959;49.798;9.928;2024-02-04T03:52:09;4.97;;;3.53;;
19623;SDS011;9959;49.798;9.928;2024-02-04T03:54:36;3.85;;;3.28;;
19623;SDS011;9959;49.798;9.928;2024-02-04T03:57:03;5.57;;;3.10;;
19623;SDS011;9959;49.798;9.928;2024-02-04T03:59:30;4.47;;;3.10;;
19623;SDS011;9959;49.798;9.928;2024-02-04T04:01:57;3.75;;;2.53;;
19623;SDS011;9959;49.798;9.928;2024-02-04T04:04:24;3.45;;;2.83;;
19623;SDS011;9959;49.798;9.928;2024-02-04T04:06:53;4.93;;;2.72;;
19623;SDS011;9959;49.798;9.928;2024-02-04T04:09:20;4.22;;;2.70;;
19623;SDS011;9959;49.798;9.928;2024-02-04T04:11:47;3.90;;;3.08;;
19623;SDS011;9959;49.798;9.928;2024-02-04T04:14:14;3.13;;;2.78;;
19623;SDS011;9959;49.798;9.928;2024-02-04T04:16:41;3.95;;;2.88;;
19623;SDS011;9959;49.798;9.928;2024-02-04T04:19:07;5.32;;;2.85;;
19623;SDS011;9959;49.798;9.928;2024-02-04T04:21:34;4.03;;;2.80;;
19623;SDS011;9959;49.798;9.928;2024-02-04T04:24:04;4.20;;;3.25;;
19623;SDS011;9959;49.798;9.928;2024-02-04T04:26:31;6.93;;;3.42;;
19623;SDS011;9959;49.798;9.928;2024-02-04T04:28:58;4.55;;;3.10;;
19623;SDS011;9959;49.798;9.928;2024-02-04T04:31:25;3.92;;;2.60;;
19623;SDS011;9959;49.798;9.928;2024-02-04T04:33:51;5.03;;;3.08;;
19623;SDS011;9959;49.798;9.928;2024-02-04T04:36:20;5.38;;;3.28;;
19623;SDS011;9959;49.798;9.928;2024-02-04T04:38:47;3.88;;;2.95;;
19623;SDS011;9959;49.798;9.928;2024-02-04T04:41:17;2.83;;;2.30;;
19623;SDS011;9959;49.798;9.928;2024-02-04T04:43:43;5.63;;;2.92;;
19623;SDS011;9959;49.798;9.928;2024-02-04T04:46:10;3.97;;;2.92;;
19623;SDS011;9959;49.798;9.928;2024-02-04T04:48:37;3.28;;;2.70;;
19623;SDS011;9959;49.798;9.928;2024-02-04T04:51:07;4.15;;;2.83;;
19623;SDS011;9959;49.798;9.928;2024-02-04T04:53:34;4.07;;;2.75;;
19623;SDS011;9959;49.798;9.928;2024-02-04T04:56:01;4.00;;;2.65;;
19623;SDS011;9959;49.798;9.928;2024-02-04T04:58:28;4.90;;;3.08;;
19623;SDS011;9959;49.798;9.928;2024-02-04T05:00:55;4.20;;;2.20;;
19623;SDS011;9959;49.798;9.928;2024-02-04T05:03:22;3.38;;;2.53;;
19623;SDS011;9959;49.798;9.928;2024-02-04T05:05:49;4.43;;;3.20;;
19623;SDS011;9959;49.798;9.928;2024-02-04T05:08:16;4.38;;;2.70;;
19623;SDS011;9959;49.798;9.928;2024-02-04T05:10:43;3.58;;;2.70;;
19623;SDS011;9959;49.798;9.928;2024-02-04T05:13:10;4.32;;;2.80;;
19623;SDS011;9959;49.798;9.928;2024-02-04T05:15:37;3.83;;;3.10;;
19623;SDS011;9959;49.798;9.928;2024-02-04T05:18:03;3.22;;;2.30;;
19623;SDS011;9959;49.798;9.928;2024-02-04T05:20:31;3.75;;;2.45;;
19623;SDS011;9959;49.798;9.928;2024-02-04T05:22:58;3.22;;;2.50;;
19623;SDS011;9959;49.798;9.928;2024-02-04T05:25:24;3.22;;;2.40;;
19623;SDS011;9959;49.798;9.928;2024-02-04T05:27:52;2.88;;;2.30;;
19623;SDS011;9959;49.798;9.928;2024-02-04T05:30:18;3.95;;;2.30;;
19623;SDS011;9959;49.798;9.928;2024-02-04T05:32:45;2.72;;;2.28;;
19623;SDS011;9959;49.798;9.928;2024-02-04T05:35:12;4.97;;;2.10;;
19623;SDS011;9959;49.798;9.928;2024-02-04T05:37:39;2.85;;;2.00;;
19623;SDS011;9959;49.798;9.928;2024-02-04T05:40:06;2.65;;;2.05;;
19623;SDS011;9959;49.798;9.928;2024-02-04T05:42:34;2.15;;;1.67;;
19623;SDS011;9959;49.798;9.928;2024-02-04T05:45:02;2.15;;;1.90;;
19623;SDS011;9959;49.798;9.928;2024-02-04T05:47:32;2.67;;;1.83;;
19623;SDS011;9959;49.798;9.928;2024-02-04T05:49:59;3.70;;;2.28;;
19623;SDS011;9959;49.798;9.928;2024-02-04T05:52:26;2.30;;;1.90;;
19623;SDS011;9959;49.798;9.928;2024-02-04T05:54:53;5.95;;;2.00;;
19623;SDS011;9959;49.798;9.928;2024-02-04T05:57:20;2.80;;;2.20;;
19623;SDS011;9959;49.798;9.928;2024-02-04T05:59:47;3.40;;;2.50;;
19623;SDS011;9959;49.798;9.928;2024-02-04T06:02:19;2.63;;;2.33;;
19623;SDS011;9959;49.798;9.928;2024-02-04T06:04:46;3.17;;;2.20;;
19623;SDS011;9959;49.798;9.928;2024-02-04T06:07:15;3.90;;;2.90;;
19623;SDS011;9959;49.798;9.928;2024-02-04T06:09:42;3.67;;;2.72;;
19623;SDS011;9959;49.798;9.928;2024-02-04T06:12:08;4.15;;;3.30;;
19623;SDS011;9959;49.798;9.928;2024-02-04T06:14:35;4.18;;;2.78;;
19623;SDS011;9959;49.798;9.928;2024-02-04T06:17:06;5.20;;;3.17;;
19623;SDS011;9959;49.798;9.928;2024-02-04T06:19:34;4.40;;;3.22;;
19623;SDS011;9959;49.798;9.928;2024-02-04T06:22:02;4.35;;;3.47;;
19623;SDS011;9959;49.798;9.928;2024-02-04T06:24:29;5.60;;;3.55;;
19623;SDS011;9959;49.798;9.928;2024-02-04T06:26:56;4.63;;;3.63;;
19623;SDS011;9959;49.798;9.928;2024-02-04T06:29:23;4.80;;;3.63;;
19623;SDS011;9959;49.798;9.928;2024-02-04T06:31:50;6.45;;;3.40;;
19623;SDS011;9959;49.798;9.928;2024-02-04T06:34:17;4.85;;;3.67;;
19623;SDS011;9959;49.798;9.928;2024-02-04T06:36:44;4.13;;;2.70;;
19623;SDS011;9959;49.798;9.928;2024-02-04T06:39:11;5.43;;;3.60;;
19623;SDS011;9959;49.798;9.928;2024-02-04T06:41:38;7.18;;;4.10;;
19623;SDS011;9959;49.798;9.928;2024-02-04T06:44:05;5.78;;;3.58;;
19623;SDS011;9959;49.798;9.928;2024-02-04T06:46:32;4.63;;;3.65;;
19623;SDS011;9959;49.798;9.928;2024-02-04T06:48:59;5.22;;;3.75;;
19623;SDS011;9959;49.798;9.928;2024-02-04T06:51:28;3.38;;;2.60;;
19623;SDS011;9959;49.798;9.928;2024-02-04T06:53:54;3.78;;;2.80;;
19623;SDS011;9959;49.798;9.928;2024-02-04T06:56:22;5.70;;;2.67;;
19623;SDS011;9959;49.798;9.928;2024-02-04T06:58:49;4.63;;;3.00;;
19623;SDS011;9959;49.798;9.928;2024-02-04T07:01:16;4.03;;;2.72;;
19623;SDS011;9959;49.798;9.928;2024-02-04T07:03:42;3.88;;;2.80;;
19623;SDS011;9959;49.798;9.928;2024-02-04T07:06:10;2.60;;;2.05;;
19623;SDS011;9959;49.798;9.928;2024-02-04T07:08:37;2.95;;;2.35;;
19623;SDS011;9959;49.798;9.928;2024-02-04T07:11:04;2.88;;;2.30;;
19623;SDS011;9959;49.798;9.928;2024-02-04T07:13:31;3.40;;;2.58;;
19623;SDS011;9959;49.798;9.928;2024-02-04T07:15:58;3.63;;;2.88;;
19623;SDS011;9959;49.798;9.928;2024-02-04T07:18:25;2.78;;;2.20;;
19623;SDS011;9959;49.798;9.928;2024-02-04T07:20:52;2.67;;;2.20;;
19623;SDS011;9959;49.798;9.928;2024-02-04T07:23:18;3.13;;;2.40;;
19623;SDS011;9959;49.798;9.928;2024-02-04T07:25:45;2.88;;;2.20;;
19623;SDS011;9959;49.798;9.928;2024-02-04T07:28:12;2.67;;;1.83;;
19623;SDS011;9959;49.798;9.928;2024-02-04T07:30:39;3.20;;;2.28;;
19623;SDS011;9959;49.798;9.928;2024-02-04T07:33:06;3.38;;;2.50;;
19623;SDS011;9959;49.798;9.928;2024-02-04T07:35:33;3.03;;;1.90;;
19623;SDS011;9959;49.798;9.928;2024-02-04T07:38:00;2.60;;;2.13;;
19623;SDS011;9959;49.798;9.928;2024-02-04T07:40:27;11.15;;;3.50;;
19623;SDS011;9959;49.798;9.928;2024-02-04T07:42:54;3.72;;;2.00;;
19623;SDS011;9959;49.798;9.928;2024-02-04T07:45:21;3.92;;;2.50;;
19623;SDS011;9959;49.798;9.928;2024-02-04T07:47:48;2.20;;;2.00;;
19623;SDS011;9959;49.798;9.928;2024-02-04T07:50:15;2.83;;;2.15;;
19623;SDS011;9959;49.798;9.928;2024-02-04T07:52:42;2.88;;;2.17;;
19623;SDS011;9959;49.798;9.928;2024-02-04T07:55:10;3.53;;;2.58;;
19623;SDS011;9959;49.798;9.928;2024-02-04T07:57:38;3.00;;;2.08;;
19623;SDS011;9959;49.798;9.928;2024-02-04T08:00:05;3.25;;;2.28;;
19623;SDS011;9959;49.798;9.928;2024-02-04T08:02:32;3.00;;;2.20;;
19623;SDS011;9959;49.798;9.928;2024-02-04T08:04:59;2.28;;;1.55;;
19623;SDS011;9959;49.798;9.928;2024-02-04T08:07:27;3.10;;;2.50;;
19623;SDS011;9959;49.798;9.928;2024-02-04T08:09:54;2.17;;;1.83;;
19623;SDS011;9959;49.798;9.928;2024-02-04T08:12:21;2.25;;;1.77;;
19623;SDS011;9959;49.798;9.928;2024-02-04T08:14:48;2.92;;;2.22;;
19623;SDS011;9959;49.798;9.928;2024-02-04T08:17:15;2.33;;;1.80;;
19623;SDS011;9959;49.798;9.928;2024-02-04T08:19:42;3.60;;;2.55;;
19623;SDS011;9959;49.798;9.928;2024-02-04T08:22:09;2.85;;;2.30;;
19623;SDS011;9959;49.798;9.928;2024-02-04T08:24:36;2.60;;;2.10;;
19623;SDS011;9959;49.798;9.928;2024-02-04T08:27:03;3.00;;;2.50;;
19623;SDS011;9959;49.798;9.928;2024-02-04T08:29:30;2.45;;;2.03;;
19623;SDS011;9959;49.798;9.928;2024-02-04T08:31:57;2.50;;;2.20;;
19623;SDS011;9959;49.798;9.928;2024-02-04T08:34:24;2.55;;;2.13;;
19623;SDS011;9959;49.798;9.928;2024-02-04T08:36:52;3.10;;;2.40;;
19623;SDS011;9959;49.798;9.928;2024-02-04T08:39:19;2.45;;;2.10;;
19623;SDS011;9959;49.798;9.928;2024-02-04T08:41:46;2.03;;;1.83;;
19623;SDS011;9959;49.798;9.928;2024-02-04T08:44:13;3.42;;;2.25;;
19623;SDS011;9959;49.798;9.928;2024-02-04T08:46:57;2.70;;;1.77;;
19623;SDS011;9959;49.798;9.928;2024-02-04T08:49:24;2.63;;;2.38;;
19623;SDS011;9959;49.798;9.928;2024-02-04T08:51:51;2.20;;;1.92;;
19623;SDS011;9959;49.798;9.928;2024-02-04T08:54:18;2.78;;;1.75;;
19623;SDS011;9959;49.798;9.928;2024-02-04T08:56:46;2.15;;;1.70;;
19623;SDS011;9959;49.798;9.928;2024-02-04T08:59:13;2.50;;;2.22;;
19623;SDS011;9959;49.798;9.928;2024-02-04T09:01:39;2.60;;;2.05;;
19623;SDS011;9959;49.798;9.928;2024-02-04T09:04:06;3.42;;;1.95;;
19623;SDS011;9959;49.798;9.928;2024-02-04T09:06:33;2.58;;;1.95;;
19623;SDS011;9959;49.798;9.928;2024-02-04T09:09:01;3.05;;;1.80;;
19623;SDS011;9959;49.798;9.928;2024-02-04T09:11:28;2.42;;;1.90;;
19623;SDS011;9959;49.798;9.928;2024-02-04T09:13:55;2.63;;;2.05;;
19623;SDS011;9959;49.798;9.928;2024-02-04T09:16:22;2.38;;;1.73;;
19623;SDS011;9959;49.798;9.928;2024-02-04T09:18:49;1.67;;;1.58;;
19623;SDS011;9959;49.798;9.928;2024-02-04T09:21:16;1.90;;;1.70;;
19623;SDS011;9959;49.798;9.928;2024-02-04T09:23:43;1.95;;;1.60;;
19623;SDS011;9959;49.798;9.928;2024-02-04T09:26:10;3.20;;;1.70;;
19623;SDS011;9959;49.798;9.928;2024-02-04T09:28:39;3.38;;;1.73;;
19623;SDS011;9959;49.798;9.928;2024-02-04T09:31:09;1.98;;;1.73;;
19623;SDS011;9959;49.798;9.928;2024-02-04T09:33:36;2.22;;;1.60;;
19623;SDS011;9959;49.798;9.928;2024-02-04T09:36:05;1.83;;;1.63;;
19623;SDS011;9959;49.798;9.928;2024-02-04T09:38:32;1.88;;;1.50;;
19623;SDS011;9959;49.798;9.928;2024-02-04T09:41:00;2.00;;;1.30;;
19623;SDS011;9959;49.798;9.928;2024-02-04T09:43:31;1.92;;;1.40;;
19623;SDS011;9959;49.798;9.928;2024-02-04T09:46:00;2.67;;;1.45;;
19623;SDS011;9959;49.798;9.928;2024-02-04T09:48:31;1.98;;;1.55;;
19623;SDS011;9959;49.798;9.928;2024-02-04T09:50:59;1.83;;;1.20;;
19623;SDS011;9959;49.798;9.928;2024-02-04T09:53:31;0.70;;;0.70;;
19623;SDS011;9959;49.798;9.928;2024-02-04T09:56:01;1.13;;;1.00;;
19623;SDS011;9959;49.798;9.928;2024-02-04T09:58:41;1.20;;;1.02;;
19623;SDS011;9959;49.798;9.928;2024-02-04T10:01:08;1.27;;;1.10;;
19623;SDS011;9959;49.798;9.928;2024-02-04T10:03:35;1.83;;;1.10;;
19623;SDS011;9959;49.798;9.928;2024-02-04T10:06:02;1.63;;;1.10;;
19623;SDS011;9959;49.798;9.928;2024-02-04T10:08:30;1.95;;;1.13;;
19623;SDS011;9959;49.798;9.928;2024-02-04T10:10:57;2.78;;;1.25;;
19623;SDS011;9959;49.798;9.928;2024-02-04T10:13:25;2.95;;;1.00;;
19623;SDS011;9959;49.798;9.928;2024-02-04T10:15:52;2.03;;;1.10;;
19623;SDS011;9959;49.798;9.928;2024-02-04T10:18:19;2.45;;;1.30;;
19623;SDS011;9959;49.798;9.928;2024-02-04T10:20:46;1.50;;;1.25;;
19623;SDS011;9959;49.798;9.928;2024-02-04T10:23:14;1.95;;;1.10;;
19623;SDS011;9959;49.798;9.928;2024-02-04T10:25:41;1.30;;;1.20;;
19623;SDS011;9959;49.798;9.928;2024-02-04T10:28:08;1.33;;;0.90;;
19623;SDS011;9959;49.798;9.928;2024-02-04T10:30:37;2.00;;;1.00;;
19623;SDS011;9959;49.798;9.928;2024-02-04T10:33:05;1.65;;;1.17;;
19623;SDS011;9959;49.798;9.928;2024-02-04T10:35:32;0.93;;;0.90;;
19623;SDS011;9959;49.798;9.928;2024-02-04T10:37:58;1.95;;;1.35;;
19623;SDS011;9959;49.798;9.928;2024-02-04T10:40:25;2.75;;;0.95;;
19623;SDS011;9959;49.798;9.928;2024-02-04T10:42:52;2.17;;;1.20;;
19623;SDS011;9959;49.798;9.928;2024-02-04T10:45:26;1.92;;;1.30;;
19623;SDS011;9959;49.798;9.928;2024-02-04T10:47:57;1.23;;;1.13;;
19623;SDS011;9959;49.798;9.928;2024-02-04T10:50:28;1.30;;;1.20;;
19623;SDS011;9959;49.798;9.928;2024-02-04T10:52:57;5.25;;;1.30;;
19623;SDS011;9959;49.798;9.928;2024-02-04T10:55:27;2.28;;;1.30;;
19623;SDS011;9959;49.798;9.928;2024-02-04T10:57:57;1.10;;;0.95;;
19623;SDS011;9959;49.798;9.928;2024-02-04T11:00:25;1.65;;;1.20;;
19623;SDS011;9959;49.798;9.928;2024-02-04T11:02:53;1.20;;;1.10;;
19623;SDS011;9959;49.798;9.928;2024-02-04T11:05:21;3.65;;;1.20;;
19623;SDS011;9959;49.798;9.928;2024-02-04T11:07:49;1.58;;;1.13;;
19623;SDS011;9959;49.798;9.928;2024-02-04T11:10:17;2.00;;;1.05;;
19623;SDS011;9959;49.798;9.928;2024-02-04T11:12:46;1.60;;;1.40;;
19623;SDS011;9959;49.798;9.928;2024-02-04T11:15:16;1.40;;;1.13;;
19623;SDS011;9959;49.798;9.928;2024-02-04T11:20:26;2.00;;;1.10;;
19623;SDS011;9959;49.798;9.928;2024-02-04T11:25:46;1.90;;;1.40;;
19623;SDS011;9959;49.798;9.928;2024-02-04T11:28:16;1.88;;;1.30;;
19623;SDS011;9959;49.798;9.928;2024-02-04T11:30:43;2.15;;;1.38;;
19623;SDS011;9959;49.798;9.928;2024-02-04T11:33:11;3.53;;;1.70;;
19623;SDS011;9959;49.798;9.928;2024-02-04T11:35:40;1.80;;;1.52;;
19623;SDS011;9959;49.798;9.928;2024-02-04T11:38:07;2.85;;;1.60;;
19623;SDS011;9959;49.798;9.928;2024-02-04T11:40:35;2.90;;;1.52;;
19623;SDS011;9959;49.798;9.928;2024-02-04T11:43:04;1.48;;;1.38;;
19623;SDS011;9959;49.798;9.928;2024-02-04T11:45:37;1.92;;;1.70;;
19623;SDS011;9959;49.798;9.928;2024-02-04T11:48:12;2.38;;;1.50;;
19623;SDS011;9959;49.798;9.928;2024-02-04T11:50:39;2.17;;;1.80;;
19623;SDS011;9959;49.798;9.928;2024-02-04T11:53:11;2.42;;;2.00;;
19623;SDS011;9959;49.798;9.928;2024-02-04T11:55:39;2.45;;;1.90;;
19623;SDS011;9959;49.798;9.928;2024-02-04T11:58:11;4.45;;;2.00;;
19623;SDS011;9959;49.798;9.928;2024-02-04T12:00:42;2.38;;;1.67;;
19623;SDS011;9959;49.798;9.928;2024-02-04T12:03:11;1.70;;;1.60;;
19623;SDS011;9959;49.798;9.928;2024-02-04T12:05:38;2.90;;;1.67;;
19623;SDS011;9959;49.798;9.928;2024-02-04T12:08:08;1.95;;;1.65;;
19623;SDS011;9959;49.798;9.928;2024-02-04T12:10:36;1.27;;;1.10;;
19623;SDS011;9959;49.798;9.928;2024-02-04T12:13:05;3.25;;;1.50;;
19623;SDS011;9959;49.798;9.928;2024-02-04T12:15:35;3.42;;;1.90;;
19623;SDS011;9959;49.798;9.928;2024-02-04T12:18:05;2.50;;;1.60;;
19623;SDS011;9959;49.798;9.928;2024-02-04T12:20:37;2.15;;;1.80;;
19623;SDS011;9959;49.798;9.928;2024-02-04T12:23:06;3.25;;;2.15;;
19623;SDS011;9959;49.798;9.928;2024-02-04T12:25:34;2.17;;;1.70;;
19623;SDS011;9959;49.798;9.928;2024-02-04T12:28:04;1.95;;;1.65;;
19623;SDS011;9959;49.798;9.928;2024-02-04T12:30:32;2.50;;;2.08;;
19623;SDS011;9959;49.798;9.928;2024-02-04T12:33:00;2.30;;;1.70;;
19623;SDS011;9959;49.798;9.928;2024-02-04T12:35:28;1.98;;;1.58;;
19623;SDS011;9959;49.798;9.928;2024-02-04T12:37:55;1.65;;;1.48;;
19623;SDS011;9959;49.798;9.928;2024-02-04T12:40:24;2.10;;;1.40;;
19623;SDS011;9959;49.798;9.928;2024-02-04T12:42:55;1.40;;;1.17;;
19623;SDS011;9959;49.798;9.928;2024-02-04T12:45:29;2.28;;;1.20;;
19623;SDS011;9959;49.798;9.928;2024-02-04T12:47:57;1.10;;;1.00;;
19623;SDS011;9959;49.798;9.928;2024-02-04T12:50:25;1.33;;;1.20;;
19623;SDS011;9959;49.798;9.928;2024-02-04T12:53:02;1.55;;;1.23;;
19623;SDS011;9959;49.798;9.928;2024-02-04T12:55:33;2.75;;;1.40;;
19623;SDS011;9959;49.798;9.928;2024-02-04T12:58:11;4.03;;;1.58;;
19623;SDS011;9959;49.798;9.928;2024-02-04T13:00:41;1.77;;;1.27;;
19623;SDS011;9959;49.798;9.928;2024-02-04T13:03:08;1.85;;;1.10;;
19623;SDS011;9959;49.798;9.928;2024-02-04T13:05:35;1.50;;;1.00;;
19623;SDS011;9959;49.798;9.928;2024-02-04T13:08:03;2.28;;;0.90;;
19623;SDS011;9959;49.798;9.928;2024-02-04T13:10:33;1.33;;;1.20;;
19623;SDS011;9959;49.798;9.928;2024-02-04T13:13:02;1.40;;;1.02;;
19623;SDS011;9959;49.798;9.928;2024-02-04T13:18:04;1.00;;;0.90;;
19623;SDS011;9959;49.798;9.928;2024-02-04T13:20:31;1.75;;;1.30;;
19623;SDS011;9959;49.798;9.928;2024-02-04T13:22:58;1.15;;;0.90;;
19623;SDS011;9959;49.798;9.928;2024-02-04T13:25:26;1.50;;;1.05;;
19623;SDS011;9959;49.798;9.928;2024-02-04T13:27:54;1.08;;;0.93;;
19623;SDS011;9959;49.798;9.928;2024-02-04T13:30:21;2.65;;;1.10;;
19623;SDS011;9959;49.798;9.928;2024-02-04T13:32:48;1.20;;;0.90;;
19623;SDS011;9959;49.798;9.928;2024-02-04T13:35:15;2.00;;;1.17;;
19623;SDS011;9959;49.798;9.928;2024-02-04T13:37:46;1.00;;;0.90;;
19623;SDS011;9959;49.798;9.928;2024-02-04T13:40:18;0.80;;;0.80;;
19623;SDS011;9959;49.798;9.928;2024-02-04T13:42:46;1.17;;;1.00;;
19623;SDS011;9959;49.798;9.928;2024-02-04T13:45:13;1.02;;;0.90;;
19623;SDS011;9959;49.798;9.928;2024-02-04T13:47:41;2.13;;;0.98;;
19623;SDS011;9959;49.798;9.928;2024-02-04T13:50:11;1.02;;;0.93;;
19623;SDS011;9959;49.798;9.928;2024-02-04T13:52:39;2.20;;;1.10;;
19623;SDS011;9959;49.798;9.928;2024-02-04T13:55:06;1.50;;;1.05;;
19623;SDS011;9959;49.798;9.928;2024-02-04T13:57:36;1.48;;;1.17;;
19623;SDS011;9959;49.798;9.928;2024-02-04T14:00:04;1.75;;;1.10;;
19623;SDS011;9959;49.798;9.928;2024-02-04T14:02:32;1.05;;;0.90;;
19623;SDS011;9959;49.798;9.928;2024-02-04T14:04:59;1.30;;;1.20;;
19623;SDS011;9959;49.798;9.928;2024-02-04T14:07:27;2.25;;;1.40;;
19623;SDS011;9959;49.798;9.928;2024-02-04T14:09:54;1.73;;;1.30;;
19623;SDS011;9959;49.798;9.928;2024-02-04T14:12:21;0.80;;;0.80;;
19623;SDS011;9959;49.798;9.928;2024-02-04T14:14:48;1.10;;;1.00;;
19623;SDS011;9959;49.798;9.928;2024-02-04T14:17:15;1.20;;;1.10;;
19623;SDS011;9959;49.798;9.928;2024-02-04T14:19:42;1.10;;;1.00;;
19623;SDS011;9959;49.798;9.928;2024-02-04T14:22:11;1.10;;;1.00;;
19623;SDS011;9959;49.798;9.928;2024-02-04T14:24:39;1.77;;;1.13;;
19623;SDS011;9959;49.798;9.928;2024-02-04T14:27:06;2.42;;;1.00;;
19623;SDS011;9959;49.798;9.928;2024-02-04T14:29:33;1.80;;;1.17;;
19623;SDS011;9959;49.798;9.928;2024-02-04T14:32:00;2.65;;;1.10;;
19623;SDS011;9959;49.798;9.928;2024-02-04T14:34:26;2.63;;;1.20;;
19623;SDS011;9959;49.798;9.928;2024-02-04T14:36:55;1.27;;;1.17;;
19623;SDS011;9959;49.798;9.928;2024-02-04T14:39:22;2.38;;;1.10;;
19623;SDS011;9959;49.798;9.928;2024-02-04T14:41:49;1.55;;;1.17;;
19623;SDS011;9959;49.798;9.928;2024-02-04T14:44:15;1.50;;;1.17;;
19623;SDS011;9959;49.798;9.928;2024-02-04T14:46:43;1.35;;;1.20;;
19623;SDS011;9959;49.798;9.928;2024-02-04T14:49:12;1.67;;;1.10;;
19623;SDS011;9959;49.798;9.928;2024-02-04T14:51:39;1.13;;;1.02;;
19623;SDS011;9959;49.798;9.928;2024-02-04T14:54:09;0.88;;;0.88;;
19623;SDS011;9959;49.798;9.928;2024-02-04T14:56:39;1.35;;;1.17;;
19623;SDS011;9959;49.798;9.928;2024-02-04T14:59:10;1.77;;;1.10;;
19623;SDS011;9959;49.798;9.928;2024-02-04T15:01:48;1.13;;;1.02;;
19623;SDS011;9959;49.798;9.928;2024-02-04T15:04:16;1.98;;;1.30;;
19623;SDS011;9959;49.798;9.928;2024-02-04T15:06:43;1.20;;;1.10;;
19623;SDS011;9959;49.798;9.928;2024-02-04T15:09:11;1.75;;;1.23;;
19623;SDS011;9959;49.798;9.928;2024-02-04T15:11:38;4.20;;;1.63;;
19623;SDS011;9959;49.798;9.928;2024-02-04T15:14:05;1.92;;;1.60;;